createdAt,value
2018-04-19T00:12:16.744Z,12.70
2018-04-19T00:17:37.292Z,12.70
2018-04-19T01:17:38.072Z,11.70
2018-04-19T01:23:19.012Z,11.70
2018-04-19T01:25:49.711Z,11.60
2018-04-19T01:28:17.258Z,11.60
2018-04-19T01:30:45.552Z,11.60
2018-04-19T01:33:13.099Z,11.70
2018-04-19T01:35:53.192Z,11.70
2018-04-19T01:38:20.752Z,11.60
2018-04-19T01:40:48.283Z,11.60
2018-04-19T01:43:15.828Z,11.60
2018-04-19T01:45:44.119Z,11.40
2018-04-19T01:48:11.668Z,11.40
2018-04-19T01:50:39.970Z,11.40
2018-04-19T01:53:07.522Z,11.40
2018-04-19T01:55:35.066Z,11.50
2018-04-19T01:58:06.419Z,11.40
2018-04-19T02:00:33.964Z,11.40
2018-04-19T02:03:02.272Z,11.40
2018-04-19T02:05:29.811Z,11.30
2018-04-19T02:07:58.115Z,11.30
2018-04-19T02:10:25.653Z,11.30
2018-04-19T02:12:53.193Z,11.30
2018-04-19T02:15:21.511Z,11.20
2018-04-19T02:17:49.052Z,11.20
2018-04-19T02:20:16.589Z,11.10
2018-04-19T02:22:44.903Z,10.80
2018-04-19T02:25:12.441Z,10.80
2018-04-19T02:27:43.878Z,10.70
2018-04-19T02:30:12.319Z,10.90
2018-04-19T02:32:39.927Z,10.90
2018-04-19T02:35:08.232Z,11.10
2018-04-19T02:37:35.769Z,11.10
2018-04-19T02:40:04.109Z,11.20
2018-04-19T02:42:31.615Z,11.20
2018-04-19T02:44:59.150Z,11.00
2018-04-19T02:47:27.451Z,10.70
2018-04-19T02:49:54.996Z,10.70
2018-04-19T02:52:29.451Z,10.60
2018-04-19T02:54:56.998Z,10.60
2018-04-19T02:57:24.560Z,10.80
2018-04-19T02:59:52.220Z,10.70
2018-04-19T03:02:19.811Z,10.50
2018-04-19T03:04:47.370Z,10.50
2018-04-19T03:07:14.922Z,10.30
2018-04-19T03:09:42.452Z,10.30
2018-04-19T03:12:09.988Z,10.20
2018-04-19T03:20:53.169Z,10.30
2018-04-19T03:23:21.500Z,10.50
2018-04-19T03:25:52.139Z,10.50
2018-04-19T03:28:19.666Z,10.40
2018-04-19T03:30:47.202Z,10.60
2018-04-19T03:33:15.527Z,10.60
2018-04-19T03:35:43.087Z,10.60
2018-04-19T03:38:10.616Z,10.60
2018-04-19T03:40:38.167Z,10.60
2018-04-19T03:43:06.555Z,10.70
2018-04-19T03:45:34.087Z,10.70
2018-04-19T03:48:01.623Z,10.70
2018-04-19T03:50:32.338Z,10.40
2018-04-19T03:52:59.889Z,10.00
2018-04-19T03:55:27.428Z,9.80
2018-04-19T03:57:54.950Z,9.60
2018-04-19T04:00:22.483Z,9.90
2018-04-19T04:02:50.034Z,10.20
2018-04-19T04:05:17.579Z,10.30
2018-04-19T04:07:50.935Z,10.40
2018-04-19T04:10:19.267Z,10.40
2018-04-19T04:12:46.800Z,10.30
2018-04-19T04:18:19.265Z,10.20
2018-04-19T04:26:43.444Z,10.20
2018-04-19T04:29:14.067Z,10.20
2018-04-19T04:31:41.607Z,10.30
2018-04-19T04:34:09.140Z,10.40
2018-04-19T04:36:36.723Z,10.50
2018-04-19T04:39:05.074Z,10.40
2018-04-19T04:41:32.608Z,10.30
2018-04-19T04:44:00.154Z,10.20
2018-04-19T04:46:27.692Z,10.20
2018-04-19T04:48:55.228Z,10.30
2018-04-19T04:51:26.826Z,10.70
2018-04-19T04:53:54.362Z,10.70
2018-04-19T04:56:21.900Z,10.80
2018-04-19T04:58:50.221Z,10.70
2018-04-19T05:01:17.794Z,10.70
2018-04-19T05:03:45.337Z,10.90
2018-04-19T05:06:12.967Z,11.00
2018-04-19T05:08:44.465Z,11.10
2018-04-19T05:11:12.055Z,11.10
2018-04-19T05:13:52.604Z,11.20
2018-04-19T05:19:13.070Z,11.30
2018-04-19T05:27:50.968Z,11.40
2018-04-19T05:30:21.659Z,11.50
2018-04-19T05:32:49.202Z,11.50
2018-04-19T05:35:17.525Z,11.60
2018-04-19T05:37:45.066Z,11.60
2018-04-19T05:40:12.602Z,11.70
2018-04-19T05:42:40.919Z,11.80
2018-04-19T05:45:08.462Z,11.80
2018-04-19T05:47:35.999Z,11.90
2018-04-19T05:50:04.309Z,12.00
2018-04-19T05:52:31.864Z,12.00
2018-04-19T05:54:59.423Z,12.10
2018-04-19T05:57:30.060Z,12.10
2018-04-19T05:59:57.601Z,12.20
2018-04-19T06:02:25.163Z,12.30
2018-04-19T06:04:52.729Z,12.50
2018-04-19T06:07:20.311Z,12.50
2018-04-19T06:09:47.894Z,12.60
2018-04-19T06:21:14.548Z,13.10
2018-04-19T06:23:42.092Z,13.30
2018-04-19T06:26:09.643Z,13.30
2018-04-19T06:28:40.945Z,13.40
2018-04-19T06:31:08.490Z,13.50
2018-04-19T06:33:36.053Z,13.70
2018-04-19T06:36:03.656Z,13.80
2018-04-19T06:38:31.161Z,13.90
2018-04-19T06:40:58.728Z,14.00
2018-04-19T06:43:27.122Z,14.10
2018-04-19T06:45:54.651Z,14.20
2018-04-19T06:48:22.196Z,14.30
2018-04-19T06:50:50.974Z,14.40
2018-04-19T06:53:19.274Z,14.50
2018-04-19T06:55:46.815Z,14.50
2018-04-19T06:58:18.320Z,14.80
2018-04-19T07:00:45.856Z,14.80
2018-04-19T07:03:13.387Z,14.90
2018-04-19T07:05:41.683Z,15.00
2018-04-19T07:08:09.211Z,15.00
2018-04-19T07:10:36.748Z,15.10
2018-04-19T07:13:27.314Z,15.10
2018-04-19T07:15:54.919Z,15.30
2018-04-19T07:18:22.460Z,15.40
2018-04-19T08:15:31.866Z,17.60
2018-04-19T08:17:59.420Z,17.70
2018-04-19T08:20:26.961Z,17.80
2018-04-19T09:23:53.471Z,20.30
2018-04-19T09:26:21.008Z,20.30
2018-04-19T09:28:54.320Z,20.60
2018-04-19T09:31:21.853Z,20.80
2018-04-19T09:33:49.383Z,20.70
2018-04-19T09:36:16.936Z,20.90
2018-04-19T09:38:45.246Z,22.40
2018-04-19T09:41:12.792Z,22.30
2018-04-19T09:43:40.347Z,22.40
2018-04-19T09:46:07.883Z,22.30
2018-04-19T09:48:36.192Z,23.40
2018-04-19T09:51:06.889Z,23.30
2018-04-19T09:53:35.199Z,23.60
2018-04-19T09:56:02.767Z,23.60
2018-04-19T09:58:30.334Z,23.50
2018-04-19T10:01:03.414Z,24.00
2018-04-19T10:03:36.522Z,24.10
2018-04-19T10:06:07.824Z,23.70
2018-04-19T10:08:36.116Z,24.30
2018-04-19T10:11:03.660Z,24.30
2018-04-19T10:19:17.802Z,24.40
2018-04-19T10:21:52.107Z,24.50
2018-04-19T10:24:19.664Z,24.80
2018-04-19T10:26:47.788Z,24.50
2018-04-19T10:29:15.342Z,24.30
2018-04-19T10:31:42.907Z,24.50
2018-04-19T10:34:10.464Z,25.20
2018-04-19T10:36:38.725Z,25.30
2018-04-19T10:48:46.359Z,25.40
2018-04-19T10:51:17.007Z,25.40
2018-04-19T10:53:44.544Z,25.00
2018-04-19T10:56:12.080Z,25.50
2018-04-19T10:58:40.476Z,26.00
2018-04-19T11:01:08.048Z,25.90
2018-04-19T11:03:35.617Z,26.60
2018-04-19T11:06:03.235Z,26.40
2018-04-19T11:08:34.855Z,26.70
2018-04-19T11:11:02.355Z,26.80
2018-04-19T11:13:43.786Z,27.10
2018-04-19T11:25:01.080Z,26.30
2018-04-19T11:27:28.625Z,26.20
2018-04-19T11:29:56.154Z,25.90
2018-04-19T11:32:27.125Z,26.10
2018-04-19T11:34:54.644Z,26.50
2018-04-19T11:37:22.166Z,26.10
2018-04-19T11:39:49.699Z,26.40
2018-04-19T11:42:17.232Z,26.80
2018-04-19T11:44:44.771Z,26.30
2018-04-19T11:47:13.101Z,26.80
2018-04-19T11:49:40.649Z,26.80
2018-04-19T11:52:08.179Z,27.00
2018-04-19T11:54:36.482Z,25.60
2018-04-19T11:57:04.023Z,25.60
2018-04-19T11:59:31.565Z,25.20
2018-04-19T12:02:02.974Z,25.60
2018-04-19T12:04:30.520Z,25.60
2018-04-19T12:06:58.047Z,25.60
2018-04-19T12:09:26.348Z,26.00
2018-04-19T12:11:53.882Z,26.00
2018-04-19T12:17:15.002Z,25.80
2018-04-19T12:19:59.749Z,26.00
2018-04-19T12:25:26.889Z,26.70
2018-04-19T12:27:54.434Z,26.70
2018-04-19T12:30:21.984Z,27.30
2018-04-19T12:32:49.523Z,26.70
2018-04-19T12:35:17.832Z,26.10
2018-04-19T12:37:45.393Z,26.00
2018-04-19T12:40:12.940Z,26.80
2018-04-19T12:42:40.501Z,26.90
2018-04-19T12:45:08.046Z,27.20
2018-04-19T12:47:35.595Z,26.30
2018-04-19T12:50:03.900Z,26.90
2018-04-19T12:52:31.444Z,26.90
2018-04-19T12:54:59.124Z,26.90
2018-04-19T12:57:29.708Z,27.30
2018-04-19T12:59:57.261Z,27.80
2018-04-19T13:02:24.867Z,27.60
2018-04-19T13:04:52.412Z,26.90
2018-04-19T13:07:20.713Z,27.40
2018-04-19T13:09:48.298Z,27.40
2018-04-19T13:27:05.706Z,28.00
2018-04-19T13:29:33.239Z,27.80
2018-04-19T13:32:01.578Z,28.00
2018-04-19T13:34:29.121Z,28.00
2018-04-19T13:36:56.665Z,27.90
2018-04-19T13:39:24.208Z,28.00
2018-04-19T13:41:51.756Z,27.90
2018-04-19T13:44:20.052Z,27.60
2018-04-19T13:46:47.589Z,27.60
2018-04-19T13:49:16.013Z,27.70
2018-04-19T13:51:43.621Z,27.60
2018-04-19T13:54:15.203Z,27.60
2018-04-19T13:56:42.766Z,27.50
2018-04-19T13:59:10.317Z,27.60
2018-04-19T14:01:37.850Z,27.30
2018-04-19T14:04:05.387Z,27.80
2018-04-19T14:06:32.932Z,27.90
2018-04-19T14:09:00.469Z,27.70
2018-04-19T14:11:28.009Z,27.40
2018-04-19T14:13:56.783Z,27.20
2018-04-19T14:16:33.208Z,27.60
2018-04-19T14:22:00.213Z,27.00
2018-04-19T14:24:27.753Z,27.00
2018-04-19T14:26:58.395Z,27.20
2018-04-19T14:29:25.925Z,27.40
2018-04-19T14:31:53.499Z,27.50
2018-04-19T14:34:21.035Z,27.40
2018-04-19T14:36:48.587Z,27.30
2018-04-19T14:39:16.127Z,27.10
2018-04-19T14:41:44.433Z,26.70
2018-04-19T14:44:11.976Z,26.70
2018-04-19T14:46:39.498Z,26.90
2018-04-19T14:49:07.811Z,27.60
2018-04-19T14:51:35.337Z,27.60
2018-04-19T14:54:02.867Z,27.80
2018-04-19T14:56:30.399Z,27.50
2018-04-19T14:59:03.862Z,27.20
2018-04-19T15:01:57.420Z,27.70
2018-04-19T15:04:25.491Z,27.70
2018-04-19T15:06:53.038Z,27.20
2018-04-19T15:09:20.636Z,26.80
2018-04-19T15:11:48.121Z,26.10
2018-04-19T15:14:18.548Z,25.80
2018-04-19T15:19:49.308Z,25.90
2018-04-19T16:22:27.342Z,25.60
2018-04-19T16:24:54.949Z,25.60
2018-04-19T16:27:22.462Z,25.20
2018-04-19T16:29:50.807Z,25.00
2018-04-19T16:32:19.527Z,24.90
2018-04-19T16:34:47.084Z,24.90
2018-04-19T16:37:14.629Z,24.80
2018-04-19T16:39:42.148Z,24.50
2018-04-19T16:42:09.681Z,24.50
2018-04-19T16:44:37.227Z,24.20
2018-04-19T16:47:04.772Z,24.00
2018-04-19T16:49:35.596Z,23.60
2018-04-19T16:52:03.176Z,23.40
2018-04-19T16:54:30.718Z,23.30
2018-04-19T16:56:58.280Z,23.40
2018-04-19T16:59:25.817Z,23.60
2018-04-19T17:01:54.143Z,23.60
2018-04-19T17:04:22.335Z,23.60
2018-04-19T17:06:49.880Z,23.80
2018-04-19T17:09:17.452Z,23.60
2018-04-19T17:11:45.023Z,23.20
2018-04-19T17:14:13.220Z,23.00
2018-04-19T17:16:41.541Z,22.80
2018-04-19T17:27:55.633Z,22.30
2018-04-19T17:30:23.189Z,22.20
2018-04-19T17:32:50.735Z,22.20
2018-04-19T17:35:19.064Z,22.00
2018-04-19T17:37:46.611Z,22.00
2018-04-19T17:40:14.150Z,21.90
2018-04-19T17:42:41.686Z,21.70
2018-04-19T17:45:10.084Z,21.50
2018-04-19T17:47:37.731Z,21.40
2018-04-19T17:50:06.027Z,21.10
2018-04-19T17:52:36.688Z,21.10
2018-04-19T17:55:04.251Z,21.00
2018-04-19T17:57:31.786Z,20.70
2018-04-19T17:59:59.315Z,20.50
2018-04-19T18:02:27.643Z,20.30
2018-04-19T18:04:55.174Z,20.20
2018-04-19T18:07:23.236Z,20.00
2018-04-19T18:09:51.282Z,19.90
2018-04-19T19:14:01.887Z,18.00
2018-04-19T19:19:40.868Z,17.90
2018-04-19T19:22:08.407Z,17.80
2018-04-19T19:24:36.725Z,17.90
2018-04-19T19:27:04.268Z,17.90
2018-04-19T19:29:39.094Z,17.90
2018-04-19T19:32:06.689Z,17.90
2018-04-19T19:34:34.251Z,17.70
2018-04-19T19:37:01.930Z,17.60
2018-04-19T19:39:29.665Z,17.60
2018-04-19T19:41:58.740Z,17.50
2018-04-19T19:44:26.994Z,17.40
2018-04-19T19:46:55.325Z,17.40
2018-04-19T19:49:25.039Z,17.30
2018-04-19T19:51:52.590Z,17.20
2018-04-19T19:54:20.192Z,17.20
2018-04-19T19:56:47.791Z,17.10
2018-04-19T19:59:18.501Z,17.20
2018-04-19T20:02:04.100Z,17.10
2018-04-19T20:04:37.484Z,17.00
2018-04-19T22:24:09.459Z,15.00
2018-04-19T22:26:37.022Z,15.00
2018-04-19T22:29:04.604Z,14.90
2018-04-19T22:31:32.927Z,14.90
2018-04-19T22:34:00.463Z,14.90
2018-04-19T22:36:28.008Z,14.90
2018-04-19T22:38:56.315Z,14.90
2018-04-19T22:41:23.851Z,14.90
2018-04-19T22:43:51.395Z,14.90
2018-04-19T22:46:18.928Z,14.90
2018-04-19T22:48:46.464Z,14.80
2018-04-19T22:51:14.010Z,14.70
2018-04-19T22:53:44.823Z,14.70
2018-04-19T22:56:12.352Z,14.70
2018-04-19T22:58:39.895Z,14.70
2018-04-19T23:01:07.430Z,14.70
2018-04-19T23:03:34.981Z,14.70
2018-04-19T23:06:02.521Z,14.70
2018-04-19T23:08:30.050Z,14.60
2018-04-19T23:10:57.640Z,14.70
2018-04-19T23:13:44.955Z,14.70
2018-04-19T23:19:12.103Z,14.70
2018-04-19T23:21:39.703Z,14.70
2018-04-19T23:24:08.032Z,14.70
2018-04-19T23:26:35.567Z,14.70
2018-04-19T23:29:03.094Z,14.70
2018-04-19T23:31:31.393Z,14.60
2018-04-19T23:33:58.930Z,14.60
2018-04-19T23:36:26.466Z,14.60
2018-04-19T23:38:53.999Z,14.60
2018-04-19T23:41:21.545Z,14.60
2018-04-19T23:43:49.082Z,14.60
2018-04-19T23:46:16.611Z,14.50
2018-04-19T23:48:44.146Z,14.50
2018-04-19T23:51:14.816Z,14.40
2018-04-19T23:53:42.352Z,14.40
2018-04-19T23:56:09.895Z,14.30
2018-04-19T23:58:37.436Z,14.20
